Time;durP1;ratioP1;P1;durP2;ratioP2;P2;SDS_P1;SDS_P2;PMS_P1;PMS_P2;Temp;Humidity;BMP_temperature;BMP_pressure;BME280_temperature;BME280_humidity;BME280_pressure;Samples;Min_cycle;Max_cycle;Signal;HPM_P1;HPM_P2
2022/12/21 15:03:20;;;;;;;12.85;5.15;;;8.30;91.70;;;;;;5090686;27;20159;-60
2022/12/21 15:06:02;;;;;;;16.73;5.75;;;8.30;91.70;;;;;;5090585;28;20024;-60
2022/12/21 15:08:38;;;;;;;12.93;5.00;;;8.30;91.90;;;;;;5091479;28;20020;-60
2022/12/21 15:11:19;;;;;;;14.27;5.43;;;8.30;91.70;;;;;;5090931;28;20024;-60
2022/12/21 15:14:01;;;;;;;26.77;11.18;;;8.40;91.60;;;;;;5090534;28;20462;-61
2022/12/21 15:16:29;;;;;;;18.77;8.10;;;8.40;91.50;;;;;;5088552;28;20039;-59
2022/12/21 15:19:01;;;;;;;18.55;5.70;;;8.30;91.50;;;;;;5090024;28;20040;-62
2022/12/21 15:21:34;;;;;;;13.55;5.95;;;8.30;91.50;;;;;;5089828;28;20112;-59
2022/12/21 15:24:14;;;;;;;10.25;5.13;;;8.30;91.40;;;;;;5089588;28;20073;-63
2022/12/21 15:26:56;;;;;;;18.02;7.53;;;8.30;91.70;;;;;;5090154;28;20103;-62
2022/12/21 15:29:31;;;;;;;15.15;6.07;;;8.20;91.80;;;;;;5088795;28;20361;-61
2022/12/21 15:32:05;;;;;;;20.35;6.20;;;8.20;91.90;;;;;;5088778;28;20107;-60
2022/12/21 15:34:36;;;;;;;16.33;6.28;;;8.10;92.00;;;;;;5088751;28;20037;-61
2022/12/21 15:37:12;;;;;;;14.18;7.32;;;8.00;92.10;;;;;;5090117;28;20372;-60
2022/12/21 15:39:40;;;;;;;14.27;6.03;;;8.00;92.30;;;;;;5089874;28;20035;-61
2022/12/21 15:42:28;;;;;;;13.88;6.90;;;7.90;92.20;;;;;;5088464;28;20031;-60
2022/12/21 15:45:21;;;;;;;26.95;9.02;;;7.80;92.50;;;;;;5089500;28;20020;-59
2022/12/21 15:47:55;;;;;;;22.42;7.97;;;7.70;92.60;;;;;;5088026;28;20031;-60
2022/12/21 15:50:42;;;;;;;24.83;8.65;;;7.70;92.70;;;;;;5089191;28;20024;-58
2022/12/21 15:53:17;;;;;;;18.67;8.05;;;7.70;92.90;;;;;;5089254;28;20028;-56
2022/12/21 15:55:43;;;;;;;19.80;8.30;;;7.80;92.90;;;;;;5087973;28;20431;-58
2022/12/21 15:58:16;;;;;;;20.88;11.02;;;7.80;92.90;;;;;;5089356;28;20024;-59
2022/12/21 16:00:56;;;;;;;23.30;9.23;;;7.90;92.90;;;;;;5089070;28;20111;-59
2022/12/21 16:03:22;;;;;;;19.98;9.98;;;7.90;92.70;;;;;;5109983;28;20032;-59
2022/12/21 16:05:59;;;;;;;17.38;9.65;;;7.90;92.50;;;;;;5108029;28;20031;-58
2022/12/21 16:08:25;;;;;;;19.48;9.68;;;7.90;92.50;;;;;;5109529;28;20024;-59
2022/12/21 16:10:53;;;;;;;20.88;9.30;;;7.90;92.50;;;;;;5109248;28;20466;-59
2022/12/21 16:13:35;;;;;;;17.55;8.82;;;7.80;92.50;;;;;;5102249;28;20027;-58
2022/12/21 16:16:13;;;;;;;18.63;8.85;;;7.90;92.70;;;;;;5095779;28;20099;-60
2022/12/21 16:18:39;;;;;;;15.98;7.18;;;7.90;92.60;;;;;;5096073;28;20016;-59
2022/12/21 16:21:12;;;;;;;19.02;9.10;;;8.00;92.60;;;;;;5095658;28;20082;-59
2022/12/21 16:23:55;;;;;;;13.75;7.47;;;8.10;92.40;;;;;;5095819;28;20024;-61
2022/12/21 16:26:26;;;;;;;12.65;7.40;;;8.10;92.20;;;;;;5094262;28;20327;-59
2022/12/21 16:29:01;;;;;;;19.33;8.02;;;8.10;92.00;;;;;;5095804;28;20024;-62
2022/12/21 16:31:29;;;;;;;14.13;7.72;;;8.00;91.90;;;;;;5095348;28;20408;-58
2022/12/21 16:34:10;;;;;;;10.30;7.35;;;8.10;92.00;;;;;;5095627;28;20028;-59
2022/12/21 16:36:36;;;;;;;10.35;5.93;;;8.10;91.90;;;;;;5095812;28;20491;-60
2022/12/21 16:39:02;;;;;;;8.35;6.38;;;8.10;91.80;;;;;;5095879;28;20028;-60
2022/12/21 16:41:29;;;;;;;17.85;6.82;;;8.10;91.80;;;;;;5095669;28;20337;-60
2022/12/21 16:43:58;;;;;;;14.05;5.90;;;8.10;91.70;;;;;;5094051;28;20038;-58
2022/12/21 16:46:40;;;;;;;14.82;6.78;;;8.00;91.70;;;;;;5093952;28;20028;-61
2022/12/21 16:49:24;;;;;;;8.02;5.38;;;8.10;91.70;;;;;;5094411;28;20024;-59
2022/12/21 16:51:58;;;;;;;10.52;4.38;;;8.20;91.50;;;;;;5095158;28;20020;-61
2022/12/21 16:54:50;;;;;;;15.80;4.88;;;8.20;91.20;;;;;;5093618;28;20052;-61
2022/12/21 16:57:27;;;;;;;7.88;5.15;;;8.20;91.00;;;;;;5091792;28;20437;-62
2022/12/21 16:59:56;;;;;;;8.48;5.40;;;8.20;91.00;;;;;;5093587;28;20024;-60
2022/12/21 17:02:30;;;;;;;11.27;4.68;;;8.30;90.70;;;;;;5094565;28;20044;-63
2022/12/21 17:04:57;;;;;;;11.73;4.30;;;8.30;90.80;;;;;;5093855;28;20048;-60
2022/12/21 17:07:49;;;;;;;7.63;3.97;;;8.30;90.40;;;;;;5095709;28;20024;-57
2022/12/21 17:10:21;;;;;;;10.00;4.57;;;8.30;90.20;;;;;;5092658;28;20036;-60
2022/12/21 17:13:01;;;;;;;9.65;4.05;;;8.30;90.10;;;;;;5094761;28;20020;-61
2022/12/21 17:15:31;;;;;;;6.43;4.45;;;8.30;90.10;;;;;;5094702;28;20100;-60
2022/12/21 17:17:58;;;;;;;16.38;5.03;;;8.30;89.80;;;;;;5094390;28;20055;-59
2022/12/21 17:20:33;;;;;;;7.22;3.92;;;8.40;89.70;;;;;;5094849;28;20471;-60
2022/12/21 17:23:04;;;;;;;9.18;3.45;;;8.40;89.60;;;;;;5094796;28;20024;-61
2022/12/21 17:25:49;;;;;;;9.05;3.50;;;8.30;89.70;;;;;;5093499;28;20073;-60
2022/12/21 17:28:17;;;;;;;7.68;4.25;;;8.40;89.50;;;;;;5094173;28;20095;-60
2022/12/21 17:30:46;;;;;;;9.95;3.45;;;8.40;89.30;;;;;;5094268;28;20047;-61
2022/12/21 17:33:24;;;;;;;4.88;3.05;;;8.50;89.10;;;;;;5094185;28;20062;-61
2022/12/21 17:35:51;;;;;;;10.57;3.47;;;8.50;88.80;;;;;;5094645;28;20016;-61
2022/12/21 17:38:17;;;;;;;11.30;2.80;;;8.60;88.50;;;;;;5094498;28;20424;-62
2022/12/21 17:40:43;;;;;;;10.90;3.97;;;8.70;87.70;;;;;;5093137;28;20383;-58
2022/12/21 17:43:09;;;;;;;13.20;2.40;;;8.70;87.80;;;;;;5094734;28;20016;-60
2022/12/21 17:45:34;;;;;;;6.00;3.83;;;8.70;87.70;;;;;;5093199;28;20020;-59
2022/12/21 17:48:01;;;;;;;6.32;3.22;;;8.70;87.60;;;;;;5094205;28;20024;-61
2022/12/21 17:50:32;;;;;;;10.25;3.35;;;8.70;87.70;;;;;;5092914;28;20524;-60
2022/12/21 17:53:01;;;;;;;6.32;2.83;;;8.80;87.50;;;;;;5094314;28;20035;-60
2022/12/21 17:55:29;;;;;;;4.22;2.10;;;8.80;87.20;;;;;;5092653;28;20031;-58
2022/12/21 17:57:55;;;;;;;5.13;2.30;;;8.90;86.90;;;;;;5093958;28;20552;-61
2022/12/21 18:00:23;;;;;;;6.05;2.22;;;8.80;86.80;;;;;;5093736;28;20024;-59
2022/12/21 18:02:52;;;;;;;4.22;1.90;;;8.90;86.80;;;;;;5092329;28;20135;-59
2022/12/21 18:05:22;;;;;;;5.90;2.67;;;8.80;86.70;;;;;;5093854;28;20036;-56
2022/12/21 18:07:48;;;;;;;6.65;2.35;;;8.90;86.40;;;;;;5094339;28;20024;-59
2022/12/21 18:10:27;;;;;;;4.70;2.28;;;8.90;86.50;;;;;;5093764;28;20361;-59
2022/12/21 18:12:54;;;;;;;5.20;2.10;;;8.90;86.40;;;;;;5092358;28;20028;-59
2022/12/21 18:15:21;;;;;;;9.25;2.47;;;8.90;86.40;;;;;;5092537;28;20081;-59
2022/12/21 18:18:06;;;;;;;3.63;2.05;;;9.00;86.40;;;;;;5092441;28;20024;-59
2022/12/21 18:20:41;;;;;;;9.02;2.58;;;9.10;85.90;;;;;;5093715;28;20031;-61
2022/12/21 18:23:19;;;;;;;4.05;2.33;;;9.10;85.80;;;;;;5093301;28;20089;-58
2022/12/21 18:25:45;;;;;;;4.40;2.50;;;9.00;86.30;;;;;;5092186;28;20028;-58
2022/12/21 18:28:17;;;;;;;10.07;3.30;;;9.20;86.00;;;;;;5092194;28;20075;-59
2022/12/21 18:30:48;;;;;;;5.65;2.95;;;9.20;86.10;;;;;;5093205;28;20020;-59
2022/12/21 18:33:16;;;;;;;4.80;1.80;;;9.10;86.20;;;;;;5093247;28;20515;-61
2022/12/21 18:35:42;;;;;;;6.45;2.28;;;9.20;86.00;;;;;;5093046;28;20059;-58
2022/12/21 18:38:32;;;;;;;6.85;2.78;;;9.20;86.00;;;;;;5093223;28;20036;-59
2022/12/21 18:40:57;;;;;;;10.93;3.60;;;9.10;86.10;;;;;;5092686;28;20051;-60
2022/12/21 18:43:29;;;;;;;6.25;2.17;;;9.20;86.10;;;;;;5093752;28;20357;-61
2022/12/21 18:46:31;;;;;;;4.50;2.20;;;9.10;86.80;;;;;;5093684;28;20024;-61
2022/12/21 18:49:11;;;;;;;5.57;2.53;;;9.00;87.70;;;;;;5093287;28;20016;-61
2022/12/21 18:51:38;;;;;;;6.00;2.33;;;8.80;88.10;;;;;;5092691;28;20024;-61
2022/12/21 18:54:21;;;;;;;5.90;2.75;;;8.70;88.90;;;;;;5092947;28;20035;-61
2022/12/21 18:56:48;;;;;;;3.97;2.08;;;8.60;89.30;;;;;;5093227;28;20475;-60
2022/12/21 18:59:15;;;;;;;12.57;4.00;;;8.60;89.70;;;;;;5092966;28;20077;-58
2022/12/21 19:01:41;;;;;;;6.10;3.25;;;8.60;89.70;;;;;;5092497;28;20044;-61
2022/12/21 19:04:28;;;;;;;10.43;3.65;;;8.60;89.70;;;;;;5092645;28;20072;-61
2022/12/21 19:06:54;;;;;;;7.63;3.72;;;8.60;89.90;;;;;;5091435;28;20024;-58
2022/12/21 19:09:22;;;;;;;7.28;3.90;;;8.60;89.90;;;;;;5092927;28;20099;-60
2022/12/21 19:11:48;;;;;;;7.05;3.63;;;8.40;90.30;;;;;;5093146;28;20024;-59
2022/12/21 19:14:19;;;;;;;9.15;4.13;;;8.50;90.50;;;;;;5092953;28;20055;-59
2022/12/21 19:16:50;;;;;;;10.77;3.60;;;8.50;90.40;;;;;;5092896;28;20020;-60
2022/12/21 19:19:20;;;;;;;6.22;3.28;;;8.50;90.40;;;;;;5093247;28;20039;-61
2022/12/21 19:21:50;;;;;;;4.57;3.58;;;8.50;90.50;;;;;;5092686;28;20020;-60
2022/12/21 19:24:28;;;;;;;4.10;3.05;;;8.40;90.60;;;;;;5093399;28;20039;-62
2022/12/21 19:26:55;;;;;;;6.10;3.80;;;8.50;90.80;;;;;;5092012;28;20039;-59
2022/12/21 19:29:25;;;;;;;6.80;3.03;;;8.50;90.40;;;;;;5092684;28;20081;-62
2022/12/21 19:31:51;;;;;;;;;;;8.50;90.50;;;;;;5093196;28;20066;-60
2022/12/21 19:34:17;;;;;;;6.47;3.30;;;8.50;90.50;;;;;;5091551;28;19947;-61
2022/12/21 19:36:46;;;;;;;6.65;3.88;;;8.50;90.60;;;;;;5091627;28;20146;-60
2022/12/21 19:39:39;;;;;;;6.13;2.70;;;8.50;90.90;;;;;;5092660;28;20028;-62
2022/12/21 19:42:25;;;;;;;9.25;2.40;;;8.50;90.70;;;;;;5091606;28;20024;-61
2022/12/21 19:44:51;;;;;;;9.35;3.40;;;8.50;90.90;;;;;;5093185;28;20021;-61
2022/12/21 19:47:22;;;;;;;5.55;3.17;;;8.40;91.20;;;;;;5092867;28;20074;-62
2022/12/21 19:49:48;;;;;;;6.55;3.13;;;8.40;91.60;;;;;;5096514;28;20030;-59
2022/12/21 19:52:14;;;;;;;4.55;2.50;;;8.40;91.70;;;;;;5095297;28;20024;-61
2022/12/21 19:54:40;;;;;;;5.90;3.13;;;8.40;91.90;;;;;;5096462;28;20364;-61
2022/12/21 19:57:16;;;;;;;6.38;2.88;;;8.30;92.20;;;;;;5096638;28;20115;-60
2022/12/21 19:59:43;;;;;;;3.72;2.83;;;8.40;92.30;;;;;;5096188;28;20045;-62
2022/12/21 20:02:22;;;;;;;5.18;2.80;;;8.40;92.50;;;;;;5094265;28;20048;-61
2022/12/21 20:04:47;;;;;;;3.97;2.58;;;8.30;92.60;;;;;;5096427;28;20043;-60
2022/12/21 20:07:13;;;;;;;6.07;2.70;;;8.30;92.70;;;;;;5096407;28;20017;-61
2022/12/21 20:09:38;;;;;;;3.30;2.03;;;8.30;92.70;;;;;;5096478;28;20024;-61
2022/12/21 20:12:12;;;;;;;5.13;2.85;;;8.30;92.90;;;;;;5094909;28;20024;-63
2022/12/21 20:14:46;;;;;;;10.02;4.03;;;8.30;93.00;;;;;;5096201;28;20032;-61
2022/12/21 20:17:19;;;;;;;5.93;3.08;;;8.30;93.00;;;;;;5096494;28;20028;-62
2022/12/21 20:19:46;;;;;;;5.68;3.22;;;8.30;93.00;;;;;;5095080;28;20024;-63
2022/12/21 20:22:12;;;;;;;6.63;2.88;;;8.40;93.00;;;;;;5096304;28;20478;-63
2022/12/21 20:24:45;;;;;;;5.78;3.45;;;8.30;93.00;;;;;;5094804;28;20112;-62
2022/12/21 20:27:35;;;;;;;4.65;2.55;;;8.30;93.00;;;;;;5094646;28;20028;-60
2022/12/21 20:30:02;;;;;;;8.18;3.40;;;8.30;93.10;;;;;;5095921;28;20459;-61
2022/12/21 20:32:28;;;;;;;6.72;3.30;;;8.30;93.20;;;;;;5095858;28;20093;-61
2022/12/21 20:34:55;;;;;;;4.72;2.88;;;8.30;93.20;;;;;;5095808;28;20128;-59
2022/12/21 20:37:22;;;;;;;5.65;2.90;;;8.30;93.10;;;;;;5095588;28;20024;-58
2022/12/21 20:39:48;;;;;;;3.95;2.42;;;8.30;93.10;;;;;;5096122;28;20053;-62
2022/12/21 20:45:12;;;;;;;3.22;2.63;;;8.40;93.40;;;;;;5096238;28;20051;-61
2022/12/21 20:47:38;;;;;;;5.80;3.20;;;8.30;93.30;;;;;;5094300;28;20020;-59
2022/12/21 20:50:05;;;;;;;10.82;4.35;;;8.30;93.30;;;;;;5094232;28;20024;-62
2022/12/21 20:52:32;;;;;;;6.25;3.22;;;8.40;93.40;;;;;;5096113;28;20100;-59
2022/12/21 20:57:42;;;;;;;7.65;4.22;;;8.40;93.30;;;;;;5095672;28;20050;-60
2022/12/21 21:00:09;;;;;;;4.47;3.25;;;8.50;93.20;;;;;;5095364;28;20028;-61
